MSC Ludovica — HPAF — position and weather

sailwx.info

Track history (hours):
 
Tides and Currents Weather Stations Pressure Air Temp Water Temp Dewpoint Dewpoint Depression Visibility Wind Speed Wind Dir Waves Ship Positions

MSC Ludovica

Last reported at 2016-Aug-29 02:10 UTC. Time now 2016-Aug-30 20:50 UTC.
Position S 35°01' W 056°05'.

Length 301 m; draft 9 m.

Type: Ship. MMSI: 351248000.

Date/timePositionNaut miles runAvg speedWind from/ knotsBaromVisibWave heightAir tempDewpointWater temp
2016-Aug-29 02:10S 35°01' W 056°05'7210.8
2016-Aug-28 19:33S 34°47' W 057°31'1413.3
2016-Aug-28 18:32S 34°45' W 057°47'0 0.1
2016-Aug-28 17:32S 34°45' W 057°47'0 0.0
2016-Aug-28 16:32S 34°45' W 057°47'0 0.0
2016-Aug-28 15:32S 34°45' W 057°47'0 0.0
2016-Aug-28 14:32S 34°45' W 057°47'2 2.1
2016-Aug-28 13:33S 34°44' W 057°49'1212.1
2016-Aug-28 12:33S 34°39' W 058°03'1312.8
2016-Aug-28 11:34S 34°37' W 058°18'2 0.2
2016-Aug-28 01:04S 34°39' W 058°21'0 0.0
2016-Aug-27 04:31S 34°39' W 058°21'0 0.0
2016-Aug-27 03:28S 34°39' W 058°21'0 0.0
2016-Aug-27 02:31S 34°39' W 058°21'0 0.0
2016-Aug-27 01:31S 34°39' W 058°21'0 0.0
2016-Aug-27 00:31S 34°39' W 058°21'0 0.0
2016-Aug-26 23:31S 34°39' W 058°21'0 0.0
2016-Aug-26 22:31S 34°39' W 058°21'0 0.0
2016-Aug-26 21:28S 34°39' W 058°21'0 0.0
2016-Aug-26 20:31S 34°39' W 058°21'0 0.0
2016-Aug-26 19:31S 34°39' W 058°21'0 0.0
2016-Aug-26 18:31S 34°39' W 058°21'0 0.0
2016-Aug-26 17:28S 34°39' W 058°21'0 0.0
2016-Aug-26 14:28S 34°39' W 058°21'0 0.0
2016-Aug-26 13:31S 34°39' W 058°21'0 0.0
2016-Aug-26 12:31S 34°39' W 058°21'1 0.7
2016-Aug-26 11:33S 34°38' W 058°21'8 7.8
2016-Aug-26 10:33S 34°37' W 058°12'1313.1
2016-Aug-26 09:33S 34°41' W 057°57'10 9.7
2016-Aug-26 08:34S 34°44' W 057°45'1212.5
2016-Aug-26 07:34S 34°47' W 057°31'1513.9
2016-Aug-26 06:29S 34°56' W 057°16'73914.5
2016-Aug-24 03:23S 26°08' W 047°16'7819.7
2016-Aug-23 23:25S 24°56' W 046°44'1719.2
2016-Aug-23 22:33S 24°40' W 046°37'1919.3
2016-Aug-23 21:34S 24°22' W 046°29'2019.7
2016-Aug-23 20:34S 24°04' W 046°22'8 0.4
2016-Aug-23 01:33S 23°56' W 046°19'6 5.8
2016-Aug-23 00:33S 24°01' W 046°21'8 7.6
2016-Aug-22 23:33S 24°09' W 046°24'1010.0
2016-Aug-22 22:33S 24°18' W 046°27'3 3.3
2016-Aug-22 21:33S 24°21' W 046°29'2 1.5
2016-Aug-22 20:33S 24°22' W 046°30'1 1.2
2016-Aug-22 19:33S 24°21' W 046°29'7 7.3
2016-Aug-22 18:33S 24°16' W 046°24'3 3.2
2016-Aug-22 17:33S 24°13' W 046°22'2 1.9
2016-Aug-22 16:33S 24°15' W 046°23'2 2.0
2016-Aug-22 15:33S 24°17' W 046°24'2 1.8
2016-Aug-22 14:33S 24°18' W 046°25'2 1.9
2016-Aug-22 13:33S 24°20' W 046°26'2 1.9
2016-Aug-22 12:33S 24°22' W 046°27'2 2.0
2016-Aug-22 11:33S 24°23' W 046°28'2 2.3
2016-Aug-22 10:33S 24°25' W 046°29'2 2.4
2016-Aug-22 09:33S 24°28' W 046°30'2 2.5
2016-Aug-22 08:33S 24°30' W 046°31'2 2.5
2016-Aug-22 07:33S 24°32' W 046°32'2 2.5
2016-Aug-22 06:33S 24°34' W 046°33'1 1.4
2016-Aug-22 05:33S 24°36' W 046°34'4 3.6
2016-Aug-22 04:33S 24°32' W 046°32'4 3.6
2016-Aug-22 03:33S 24°29' W 046°31'3 3.2
2016-Aug-22 02:33S 24°26' W 046°31'3 2.8
2016-Aug-22 01:33S 24°23' W 046°29'2 2.3
2016-Aug-22 00:33S 24°21' W 046°28'3 2.9
2016-Aug-21 23:33S 24°24' W 046°29'4 4.1
2016-Aug-21 22:33S 24°28' W 046°30'4 3.6
2016-Aug-21 21:33S 24°31' W 046°31'9 8.9
2016-Aug-21 20:33S 24°28' W 046°22'9 8.7
2016-Aug-21 19:33S 24°25' W 046°13'1110.4
2016-Aug-21 18:31S 24°24' W 046°01'25814.2
2016-Aug-21 00:18S 23°06' W 041°33'1013.7
2016-Aug-20 23:33S 23°01' W 041°23'1313.5
2016-Aug-20 22:33S 22°54' W 041°11'  
Track history (hours):
 
Tides and Currents Weather Stations Pressure Air Temp Water Temp Dewpoint Dewpoint Depression Visibility Wind Speed Wind Dir Waves Ship Positions

MSC Ludovica

Last reported at 2016-Aug-29 02:10 UTC. Time now 2016-Aug-30 20:50 UTC.
Position S 35°01' W 056°05'.

Length 301 m; draft 9 m.

Type: Ship. MMSI: 351248000.

Date/timePositionNaut miles runAvg speedWind from/ knotsBaromVisibWave heightAir tempDewpointWater temp
2016-Aug-29 02:10S 35°01' W 056°05'7210.8
2016-Aug-28 19:33S 34°47' W 057°31'1413.3
2016-Aug-28 18:32S 34°45' W 057°47'0 0.1
2016-Aug-28 17:32S 34°45' W 057°47'0 0.0
2016-Aug-28 16:32S 34°45' W 057°47'0 0.0
2016-Aug-28 15:32S 34°45' W 057°47'0 0.0
2016-Aug-28 14:32S 34°45' W 057°47'2 2.1
2016-Aug-28 13:33S 34°44' W 057°49'1212.1
2016-Aug-28 12:33S 34°39' W 058°03'1312.8
2016-Aug-28 11:34S 34°37' W 058°18'2 0.2
2016-Aug-28 01:04S 34°39' W 058°21'0 0.0
2016-Aug-27 04:31S 34°39' W 058°21'0 0.0
2016-Aug-27 03:28S 34°39' W 058°21'0 0.0
2016-Aug-27 02:31S 34°39' W 058°21'0 0.0
2016-Aug-27 01:31S 34°39' W 058°21'0 0.0
2016-Aug-27 00:31S 34°39' W 058°21'0 0.0
2016-Aug-26 23:31S 34°39' W 058°21'0 0.0
2016-Aug-26 22:31S 34°39' W 058°21'0 0.0
2016-Aug-26 21:28S 34°39' W 058°21'0 0.0
2016-Aug-26 20:31S 34°39' W 058°21'0 0.0
2016-Aug-26 19:31S 34°39' W 058°21'0 0.0
2016-Aug-26 18:31S 34°39' W 058°21'0 0.0
2016-Aug-26 17:28S 34°39' W 058°21'0 0.0
2016-Aug-26 14:28S 34°39' W 058°21'0 0.0
2016-Aug-26 13:31S 34°39' W 058°21'0 0.0
2016-Aug-26 12:31S 34°39' W 058°21'1 0.7
2016-Aug-26 11:33S 34°38' W 058°21'8 7.8
2016-Aug-26 10:33S 34°37' W 058°12'1313.1
2016-Aug-26 09:33S 34°41' W 057°57'10 9.7
2016-Aug-26 08:34S 34°44' W 057°45'1212.5
2016-Aug-26 07:34S 34°47' W 057°31'1513.9
2016-Aug-26 06:29S 34°56' W 057°16'73914.5
2016-Aug-24 03:23S 26°08' W 047°16'7819.7
2016-Aug-23 23:25S 24°56' W 046°44'1719.2
2016-Aug-23 22:33S 24°40' W 046°37'1919.3
2016-Aug-23 21:34S 24°22' W 046°29'2019.7
2016-Aug-23 20:34S 24°04' W 046°22'8 0.4
2016-Aug-23 01:33S 23°56' W 046°19'6 5.8
2016-Aug-23 00:33S 24°01' W 046°21'8 7.6
2016-Aug-22 23:33S 24°09' W 046°24'1010.0
2016-Aug-22 22:33S 24°18' W 046°27'3 3.3
2016-Aug-22 21:33S 24°21' W 046°29'2 1.5
2016-Aug-22 20:33S 24°22' W 046°30'1 1.2
2016-Aug-22 19:33S 24°21' W 046°29'7 7.3
2016-Aug-22 18:33S 24°16' W 046°24'3 3.2
2016-Aug-22 17:33S 24°13' W 046°22'2 1.9
2016-Aug-22 16:33S 24°15' W 046°23'2 2.0
2016-Aug-22 15:33S 24°17' W 046°24'2 1.8
2016-Aug-22 14:33S 24°18' W 046°25'2 1.9
2016-Aug-22 13:33S 24°20' W 046°26'2 1.9
2016-Aug-22 12:33S 24°22' W 046°27'2 2.0
2016-Aug-22 11:33S 24°23' W 046°28'2 2.3
2016-Aug-22 10:33S 24°25' W 046°29'2 2.4
2016-Aug-22 09:33S 24°28' W 046°30'2 2.5
2016-Aug-22 08:33S 24°30' W 046°31'2 2.5
2016-Aug-22 07:33S 24°32' W 046°32'2 2.5
2016-Aug-22 06:33S 24°34' W 046°33'1 1.4
2016-Aug-22 05:33S 24°36' W 046°34'4 3.6
2016-Aug-22 04:33S 24°32' W 046°32'4 3.6
2016-Aug-22 03:33S 24°29' W 046°31'3 3.2
2016-Aug-22 02:33S 24°26' W 046°31'3 2.8
2016-Aug-22 01:33S 24°23' W 046°29'2 2.3
2016-Aug-22 00:33S 24°21' W 046°28'3 2.9
2016-Aug-21 23:33S 24°24' W 046°29'4 4.1
2016-Aug-21 22:33S 24°28' W 046°30'4 3.6
2016-Aug-21 21:33S 24°31' W 046°31'9 8.9
2016-Aug-21 20:33S 24°28' W 046°22'9 8.7
2016-Aug-21 19:33S 24°25' W 046°13'1110.4
2016-Aug-21 18:31S 24°24' W 046°01'25814.2
2016-Aug-21 00:18S 23°06' W 041°33'1013.7
2016-Aug-20 23:33S 23°01' W 041°23'1313.5
2016-Aug-20 22:33S 22°54' W 041°11'  

Dump ship's entire track history